KPPF/PPF METAR and TAF weather

Enter ICAO airport designator
Station Type Date Time Source
KPPF METAR 2022/01/29 10:52 UTC NOAA

KPPF 291052Z AUTO 19005KT 10SM CLR M06/M10 A3024 RMK AO2 SLP248 T10561100


Station Type Date Time Source
KPPF Decoded METAR 2022/01/29 10:52 UTC NOAA

PARSONS TRI-CITY AIRPORT, KS, United States (KPPF) 37-20N 95-30W 274M
Jan 29, 2022 - 05:52 AM EST / 2022.01.29 1052 UTC
Wind: from the S (190 degrees) at 6 MPH (5 KT):0
Visibility: 10 mile(s):0
Sky conditions: clear
Temperature: 21.9 F (-5.6 C)
Windchill: 14 F (-10 C):1
Dew Point: 14.0 F (-10.0 C)
Relative Humidity: 71%
Pressure (altimeter): 30.24 in. Hg (1024 hPa)
ob: KPPF 291052Z AUTO 19005KT 10SM CLR M06/M10 A3024 RMK AO2 SLP248 T10561100
cycle: 11

Station Type Date Time Source
KPPF TAF UTC NOAA

Error!

Example: see airport list